Time;durP1;ratioP1;P1;durP2;ratioP2;P2;SDS_P1;SDS_P2;PMS_P1;PMS_P2;Temp;Humidity;BMP_temperature;BMP_pressure;BME280_temperature;BME280_humidity;BME280_pressure;Samples;Min_cycle;Max_cycle;Signal;HPM_P1;HPM_P2
2022/01/20 00:26:04;;;;;;;8.73;4.72;;;;;;;20.45;nan;100784.34;20369944;28;98787;-69
2022/01/20 00:46:07;;;;;;;8.63;5.00;;;;;;;20.38;nan;100785.72;20378786;28;98285;-69
2022/01/20 00:56:07;;;;;;;7.63;4.72;;;;;;;20.33;nan;100793.91;20383369;28;98044;-68
2022/01/20 01:16:34;;;;;;;7.30;4.93;;;;;;;20.26;nan;100811.91;20384075;28;101598;-69
2022/01/20 01:26:35;;;;;;;7.28;4.85;;;;;;;20.24;nan;100790.09;20384625;28;102025;-69
2022/01/20 01:47:06;;;;;;;5.75;4.10;;;;;;;20.19;nan;100754.53;20383612;28;99239;-68
2022/01/20 01:57:09;;;;;;;6.22;4.43;;;;;;;20.15;nan;100735.50;20382198;28;101658;-69
2022/01/20 02:27:37;;;;;;;5.78;4.00;;;;;;;20.06;nan;100634.44;20374601;28;102073;-68
2022/01/20 02:37:38;;;;;;;7.60;4.43;;;;;;;20.04;nan;100635.50;20378539;28;101200;-68
2022/01/20 02:47:39;;;;;;;6.85;4.20;;;;;;;20.03;nan;100629.41;20380178;28;99477;-69
2022/01/20 02:57:40;;;;;;;5.88;4.30;;;;;;;20.03;nan;100618.91;20374927;28;98499;-67
2022/01/20 03:07:40;;;;;;;6.07;4.05;;;;;;;20.02;nan;100598.81;20380398;28;101040;-68
2022/01/20 03:17:42;;;;;;;4.88;3.67;;;;;;;20.02;nan;100597.94;20330590;28;102754;-69
2022/01/20 03:27:43;;;;;;;7.45;4.65;;;;;;;20.00;nan;100577.88;20309176;28;102807;-69
2022/01/20 03:37:43;;;;;;;5.57;3.78;;;;;;;20.01;nan;100573.47;20343707;28;98106;-69
2022/01/20 03:47:44;;;;;;;5.00;4.18;;;;;;;19.99;nan;100559.59;20372015;28;102025;-69
2022/01/20 03:57:47;;;;;;;5.10;4.10;;;;;;;19.97;nan;100546.56;20377953;28;104176;-69
2022/01/20 04:07:49;;;;;;;5.93;4.07;;;;;;;19.96;nan;100551.94;20342681;28;102482;-69
2022/01/20 04:17:55;;;;;;;5.85;4.05;;;;;;;19.95;nan;100539.72;20358000;28;101768;-69
2022/01/20 04:27:56;;;;;;;5.88;4.18;;;;;;;19.94;nan;100527.53;20368724;28;104950;-69
2022/01/20 04:37:58;;;;;;;6.53;4.00;;;;;;;19.91;nan;100546.97;20321368;28;102521;-69
2022/01/20 04:58:23;;;;;;;6.40;4.07;;;;;;;19.88;nan;100541.09;20355536;28;98004;-69
2022/01/20 05:08:28;;;;;;;6.72;3.90;;;;;;;19.89;nan;100551.50;20354130;28;102263;-69
2022/01/20 05:18:29;;;;;;;7.70;4.40;;;;;;;20.01;nan;100526.16;20336559;28;98420;-69
2022/01/20 05:28:29;;;;;;;7.03;4.38;;;;;;;20.21;nan;100539.69;20371204;28;106260;-67
2022/01/20 05:38:30;;;;;;;8.65;4.18;;;;;;;20.36;nan;100527.22;20393108;28;104172;-68
2022/01/20 05:48:34;;;;;;;5.57;3.63;;;;;;;20.46;nan;100533.53;20389042;28;103337;-69
2022/01/20 05:58:36;;;;;;;9.18;4.38;;;;;;;20.51;nan;100515.59;20360428;28;100592;-69
2022/01/20 06:08:41;;;;;;;14.03;4.57;;;;;;;20.59;nan;100515.91;20392448;28;99151;-69
2022/01/20 06:18:44;;;;;;;15.60;5.53;;;;;;;20.58;nan;100513.34;20368652;28;101945;-68
2022/01/20 06:28:45;;;;;;;13.37;6.93;;;;;;;20.51;nan;100517.38;20375863;28;101653;-68
2022/01/20 06:38:45;;;;;;;15.52;6.85;;;;;;;20.57;nan;100523.03;20375417;28;101766;-68
2022/01/20 06:48:46;;;;;;;14.52;5.93;;;;;;;20.62;nan;100517.47;20382433;28;99980;-69
2022/01/20 06:58:47;;;;;;;37.10;6.53;;;;;;;20.70;nan;100515.13;20375849;28;99575;-69
2022/01/20 07:08:48;;;;;;;21.10;7.80;;;;;;;20.70;nan;100493.22;20350288;28;103107;-70
2022/01/20 07:18:51;;;;;;;16.38;7.18;;;;;;;20.75;nan;100494.59;20352571;28;101519;-69
2022/01/20 07:28:52;;;;;;;12.75;6.28;;;;;;;20.81;nan;100481.91;20369005;28;101900;-70
2022/01/20 07:38:52;;;;;;;11.27;5.55;;;;;;;20.82;nan;100483.59;20413170;28;98467;-70
2022/01/20 07:48:52;;;;;;;14.55;6.57;;;;;;;20.89;nan;100482.19;20400696;28;99026;-69
2022/01/20 07:58:54;;;;;;;10.57;5.80;;;;;;;20.95;nan;100474.66;20401118;28;100334;-67
2022/01/20 08:08:56;;;;;;;11.95;6.90;;;;;;;20.92;nan;100472.28;20394386;28;105443;-68
2022/01/20 08:18:56;;;;;;;15.32;8.25;;;;;;;20.97;nan;100476.34;20397455;28;106028;-67
2022/01/20 08:28:57;;;;;;;17.80;8.85;;;;;;;21.06;nan;100486.19;20381084;28;99633;-66
2022/01/20 08:38:57;;;;;;;16.40;8.60;;;;;;;21.08;nan;100487.75;20372684;28;100218;-66
2022/01/20 08:48:59;;;;;;;11.52;7.90;;;;;;;21.06;nan;100475.66;20379268;28;102133;-66
2022/01/20 08:59:07;;;;;;;14.88;8.23;;;;;;;21.09;nan;100472.78;20390849;28;101670;-67
2022/01/20 09:09:08;;;;;;;14.43;7.90;;;;;;;21.08;nan;100486.91;20394301;28;102243;-67
2022/01/20 09:19:10;;;;;;;13.93;8.85;;;;;;;21.02;nan;100477.69;20398942;28;98563;-67
2022/01/20 09:29:12;;;;;;;12.55;7.90;;;;;;;20.99;nan;100471.81;20420390;28;100097;-67
2022/01/20 09:39:13;;;;;;;13.93;8.67;;;;;;;20.95;nan;100472.03;20396851;28;101131;-66
2022/01/20 09:49:14;;;;;;;12.77;7.70;;;;;;;20.93;nan;100473.97;20394195;28;99014;-65
2022/01/20 09:59:16;;;;;;;12.98;8.20;;;;;;;20.92;nan;100474.91;20359902;28;102379;-67
2022/01/20 10:09:26;;;;;;;12.57;8.32;;;;;;;20.92;nan;100460.91;20349570;28;98222;-67
2022/01/20 10:19:28;;;;;;;11.40;8.05;;;;;;;20.92;nan;100453.84;20393028;28;98906;-67
2022/01/20 10:29:29;;;;;;;12.70;6.93;;;;;;;20.90;nan;100429.44;20370823;28;98770;-68
2022/01/20 10:39:33;;;;;;;10.65;7.22;;;;;;;20.90;nan;100407.53;20367166;28;100398;-68
2022/01/20 10:49:33;;;;;;;9.60;6.63;;;;;;;20.88;nan;100409.44;20386544;28;97947;-66
2022/01/20 10:59:45;;;;;;;8.23;6.75;;;;;;;20.88;nan;100378.69;20378978;28;102552;-67
2022/01/20 11:09:51;;;;;;;9.47;6.73;;;;;;;20.89;nan;100355.84;20386145;28;103700;-66
2022/01/20 11:19:56;;;;;;;10.98;7.25;;;;;;;20.91;nan;100346.03;20403073;28;98992;-67
2022/01/20 11:30:01;;;;;;;15.48;10.77;;;;;;;20.91;nan;100346.03;20410772;28;97802;-67
2022/01/20 11:40:48;;;;;;;10.30;7.47;;;;;;;20.89;nan;100311.13;20408527;28;97677;-68
2022/01/20 11:51:10;;;;;;;15.20;6.85;;;;;;;20.85;nan;100293.88;20368146;28;98311;-68
2022/01/20 12:01:11;;;;;;;13.13;8.95;;;;;;;20.88;nan;100270.78;20401147;28;102149;-68
2022/01/20 12:11:12;;;;;;;13.02;8.20;;;;;;;20.91;nan;100267.94;20400928;28;98893;-67
2022/01/20 12:21:14;;;;;;;14.63;9.68;;;;;;;20.93;nan;100252.00;20398964;28;98611;-65
2022/01/20 12:31:15;;;;;;;16.45;11.70;;;;;;;20.96;nan;100246.50;20392294;28;102024;-67
2022/01/20 12:41:19;;;;;;;16.73;10.57;;;;;;;21.11;nan;100236.56;20346622;28;100554;-67
2022/01/20 12:51:30;;;;;;;16.30;10.68;;;;;;;21.24;nan;100218.00;20404600;28;100522;-67
2022/01/20 13:01:45;;;;;;;15.68;10.38;;;;;;;21.33;nan;100197.97;20347223;28;101449;-67
2022/01/20 13:21:54;;;;;;;14.02;9.40;;;;;;;21.27;nan;100189.59;20352326;28;100805;-68
2022/01/20 13:31:58;;;;;;;13.13;9.13;;;;;;;21.48;nan;100156.38;20349661;28;97376;-68
2022/01/20 13:52:39;;;;;;;13.43;8.93;;;;;;;21.62;nan;100128.91;20382013;28;97763;-67
2022/01/20 14:02:47;;;;;;;12.52;7.82;;;;;;;21.56;nan;100146.03;20379302;28;99749;-67
2022/01/20 14:12:48;;;;;;;10.07;7.57;;;;;;;21.48;nan;100130.84;20397109;28;102775;-66
2022/01/20 14:22:52;;;;;;;15.75;7.55;;;;;;;21.42;nan;100126.09;20396296;28;104446;-66
2022/01/20 14:32:54;;;;;;;12.70;7.13;;;;;;;21.39;nan;100103.47;20404729;28;97338;-67
2022/01/20 14:42:54;;;;;;;12.63;7.35;;;;;;;21.38;nan;100096.53;20368706;28;99820;-66
2022/01/20 14:52:57;;;;;;;9.32;6.70;;;;;;;21.39;nan;100084.22;20354889;28;102709;-67
2022/01/20 15:02:58;;;;;;;9.23;6.35;;;;;;;21.34;nan;100078.50;20388055;28;97864;-67
2022/01/20 15:13:02;;;;;;;8.48;5.78;;;;;;;21.27;nan;100083.44;20372086;28;102543;-66
2022/01/20 15:23:02;;;;;;;7.95;5.53;;;;;;;21.20;nan;100063.81;20389282;28;99902;-67
2022/01/20 15:33:03;;;;;;;6.82;5.18;;;;;;;21.17;nan;100090.44;20363672;28;97931;-66
2022/01/20 15:43:04;;;;;;;6.13;4.78;;;;;;;21.21;nan;100210.31;20320670;28;99318;-66
2022/01/20 15:53:11;;;;;;;10.25;4.35;;;;;;;21.22;nan;100272.56;20319639;28;99813;-68
2022/01/20 16:03:12;;;;;;;7.35;4.30;;;;;;;21.23;nan;100263.72;20335392;28;99074;-67
2022/01/20 16:13:12;;;;;;;6.90;4.13;;;;;;;21.22;nan;100291.00;20353951;28;99694;-66
2022/01/20 16:23:13;;;;;;;7.40;4.10;;;;;;;21.23;nan;100303.22;20354991;28;98404;-68
2022/01/20 16:33:15;;;;;;;4.82;3.40;;;;;;;21.22;nan;100289.19;20343548;28;99134;-67
2022/01/20 16:43:15;;;;;;;8.68;3.65;;;;;;;21.24;nan;100302.25;20421607;28;100731;-66
2022/01/20 16:53:16;;;;;;;4.25;3.13;;;;;;;21.24;nan;100329.41;20392479;28;101874;-68
2022/01/20 17:03:18;;;;;;;6.68;3.38;;;;;;;21.16;nan;100325.72;20404375;28;97499;-66
2022/01/20 17:13:19;;;;;;;8.73;2.85;;;;;;;21.16;nan;100341.53;20392776;28;99164;-67
2022/01/20 17:23:19;;;;;;;6.60;2.97;;;;;;;21.14;nan;100385.56;20395032;28;101325;-69
2022/01/20 17:33:21;;;;;;;4.53;2.72;;;;;;;21.19;nan;100367.59;20370698;28;101041;-67
2022/01/20 17:43:22;;;;;;;6.65;2.88;;;;;;;21.22;nan;100391.91;20358429;28;105981;-66
2022/01/20 17:53:27;;;;;;;3.80;2.45;;;;;;;21.28;nan;100391.41;20384097;28;99174;-66
2022/01/20 18:03:28;;;;;;;6.75;2.85;;;;;;;21.35;nan;100391.78;20363270;28;98252;-66
2022/01/20 18:13:28;;;;;;;3.63;2.30;;;;;;;21.39;nan;100406.38;20348165;28;99156;-66
2022/01/20 18:23:30;;;;;;;4.18;2.38;;;;;;;21.47;nan;100404.94;20403033;28;99558;-66
2022/01/20 18:33:31;;;;;;;4.57;2.60;;;;;;;21.50;nan;100410.81;20411846;28;101837;-66
2022/01/20 18:43:33;;;;;;;6.07;2.00;;;;;;;21.51;nan;100387.97;20413212;28;98651;-67
2022/01/20 18:53:34;;;;;;;3.42;2.03;;;;;;;21.49;nan;100408.31;20400498;28;98115;-66
2022/01/20 19:03:36;;;;;;;5.15;2.30;;;;;;;21.50;nan;100454.78;20376645;28;105173;-66
2022/01/20 19:13:37;;;;;;;5.83;1.70;;;;;;;21.48;nan;100446.97;20368513;28;102659;-66
2022/01/20 19:23:38;;;;;;;4.88;1.80;;;;;;;21.44;nan;100470.09;20398372;28;99489;-65
2022/01/20 19:33:40;;;;;;;6.07;2.20;;;;;;;21.46;nan;100479.66;20404574;28;100799;-65
2022/01/20 19:43:42;;;;;;;66.28;33.13;;;;;;;21.50;nan;100489.84;20400741;28;99419;-67
2022/01/20 19:53:42;;;;;;;46.50;26.60;;;;;;;21.34;nan;100498.09;20389849;28;99444;-66
2022/01/20 20:03:45;;;;;;;35.50;17.13;;;;;;;21.24;nan;100520.84;20402361;28;101418;-66
2022/01/20 20:13:49;;;;;;;;;;;;;;;21.18;nan;100532.66;20399449;28;100039;-66
2022/01/20 20:23:50;;;;;;;30.10;16.75;;;;;;;21.18;nan;100539.72;20416372;28;99311;-66
2022/01/20 20:33:52;;;;;;;29.95;17.00;;;;;;;21.15;nan;100548.69;20407838;28;102231;-66
2022/01/20 20:43:53;;;;;;;27.95;15.60;;;;;;;21.12;nan;100551.56;20382656;28;102235;-66
2022/01/20 20:53:54;;;;;;;24.77;14.18;;;;;;;21.05;nan;100547.69;20410014;28;98613;-67
2022/01/20 21:03:56;;;;;;;25.80;14.70;;;;;;;21.02;nan;100538.25;20417611;28;101494;-67
2022/01/20 21:13:57;;;;;;;21.38;13.70;;;;;;;20.97;nan;100566.72;20426515;28;99164;-67
2022/01/20 21:23:58;;;;;;;18.48;12.93;;;;;;;20.92;nan;100574.94;20414970;28;102510;-67
2022/01/20 21:34:00;;;;;;;19.73;13.00;;;;;;;20.89;nan;100582.22;20418048;28;98174;-67
2022/01/20 21:44:01;;;;;;;19.97;12.10;;;;;;;20.87;nan;100566.53;20413406;28;98651;-67
2022/01/20 21:54:03;;;;;;;19.30;12.23;;;;;;;20.85;nan;100572.84;20407003;28;101069;-67
2022/01/20 22:04:04;;;;;;;15.33;10.50;;;;;;;20.82;nan;100573.09;20403761;28;101524;-66
2022/01/20 22:14:05;;;;;;;14.63;10.63;;;;;;;20.86;nan;100578.03;20387033;28;99270;-67
2022/01/20 22:24:07;;;;;;;13.80;9.27;;;;;;;20.83;nan;100569.50;20394643;28;101342;-65
2022/01/20 22:34:08;;;;;;;13.88;9.43;;;;;;;20.77;nan;100568.97;20391006;28;100880;-66
2022/01/20 22:44:09;;;;;;;14.38;9.35;;;;;;;20.72;nan;100562.38;20385885;28;97966;-65
2022/01/20 22:54:11;;;;;;;13.77;8.90;;;;;;;20.69;nan;100575.72;20386883;28;100767;-65
2022/01/20 23:04:12;;;;;;;12.73;9.33;;;;;;;20.64;nan;100570.78;20390981;28;99390;-66
2022/01/20 23:14:13;;;;;;;11.98;8.65;;;;;;;20.59;nan;100567.66;20384657;28;98176;-65
2022/01/20 23:24:13;;;;;;;11.40;7.75;;;;;;;20.56;nan;100562.63;20389778;28;101171;-65
2022/01/20 23:34:14;;;;;;;10.57;7.05;;;;;;;20.51;nan;100548.94;20384490;28;98072;-66
2022/01/20 23:44:35;;;;;;;12.70;7.32;;;;;;;20.47;nan;100533.41;20394801;28;99862;-66
2022/01/20 23:54:35;;;;;;;8.07;6.68;;;;;;;20.43;nan;100545.09;20390109;28;101882;-66
